Boulder City, NV

3:43 PM PDT on July 26, 2016 (GMT -0700)
Boulder City

Weather History for KBVU - November, 2012

Change the Weather History Date:

Thursday, November 8, 2012

  Actual Average (KLAS) Record (KLAS)
Temperature  
Mean Temperature 66 °F 60 °F  
Max Temperature 77 °F 70 °F 83 °F (1950)
Min Temperature 55 °F 50 °F 24 °F (1938)
Degree Days  
Heating Degree Days 0 6  
Month to date heating degree days 39  
Since 1 July heating degree days 78  
Cooling Degree Days 1 1  
Month to date cooling degree days 9  
Year to date cooling degree days 3565  
Growing Degree Days 16 (Base 50)    
Moisture  
Dew Point 33 °F    
Average Humidity 29    
Maximum Humidity 49    
Minimum Humidity 15    
Precipitation  
Precipitation 0.00 in 0.01 in 0.29 in (1966)
Month to date precipitation 0.09  
Year to date precipitation 3.42  
Snow  
Snow 0.00 in 0.00 in 0.00 in ()
Month to date snowfall 0.0  
Since 1 July snowfall 0.0  
Since 1 September snowfall 0.0  
Snow Depth -    
Sea Level Pressure  
Sea Level Pressure 29.78 in    
Wind  
Wind Speed 8 mph (South)    
Max Wind Speed 22 mph    
Max Gust Speed 31 mph    
Visibility 10 miles    
Events      
T = Trace of Precipitation, MM = Missing Value Source: NWS Daily Summary

Daily Weather History Graph

Daily Weather History Graph

Search for Another Location

Airport or City:

Trip Planner

Search our weather history database for the weather conditions in past years. The results will help you decide how hot, cold, wet, or windy it might be!

Date:

Astronomy

Nov. 08, 2012 Rise Set
Actual Time 6:09 AM PST 4:36 PM PST
Civil Twilight 5:42 AM PST 5:03 PM PST
Nautical Twilight 5:11 AM PST 5:34 PM PST
Astronomical Twilight 4:41 AM PST 6:04 PM PST
Moon 12:19 AM PST (11/8) 1:10 PM PST (11/8)
Length of Visible Light 11h 21m
Length of Day
10h 27m
Waning Crescent, 32% of the Moon is Illuminated
Nov 8
Waning Crescent
Nov 13
New
Nov 20
First Quarter
Nov 28
Full
Dec 6
Last Quarter

Hourly Weather History & Observations

Time (PST) Temp. Dew Point Humidity Pressure Visibility Wind Dir Wind Speed Gust Speed Precip Events Conditions
12:15 AM 55.4 °F 32.0 °F 41% 29.87 in 10.0 mi Calm Calm - N/A   Clear
12:35 AM 57.2 °F 33.8 °F 41% 29.86 in 10.0 mi NNE 4.6 mph - N/A   Clear
12:55 AM 57.2 °F 33.8 °F 41% 29.86 in 10.0 mi NNE 3.5 mph - N/A   Clear
1:15 AM 57.2 °F 32.0 °F 38% 29.85 in 10.0 mi NNE 4.6 mph - N/A   Clear
1:35 AM 59.0 °F 32.0 °F 36% 29.85 in 10.0 mi ENE 4.6 mph - N/A   Clear
1:55 AM 60.8 °F 32.0 °F 34% 29.84 in 10.0 mi Calm Calm - N/A   Clear
2:15 AM 62.6 °F 32.0 °F 32% 29.84 in 10.0 mi Calm Calm - N/A   Clear
2:35 AM 59.0 °F 32.0 °F 36% 29.83 in 10.0 mi Calm Calm - N/A   Clear
2:55 AM 59.0 °F 32.0 °F 36% 29.83 in 10.0 mi Calm Calm - N/A   Clear
3:15 AM 59.0 °F 28.4 °F 31% 29.83 in 10.0 mi SSW 4.6 mph - N/A   Clear
3:35 AM 64.4 °F 28.4 °F 26% 29.83 in 10.0 mi South 5.8 mph - N/A   Clear
3:55 AM 64.4 °F 28.4 °F 26% 29.83 in 10.0 mi SSE 3.5 mph - N/A   Clear
4:15 AM 62.6 °F 30.2 °F 30% 29.83 in 10.0 mi Calm Calm - N/A   Clear
4:35 AM 55.4 °F 32.0 °F 41% 29.83 in 10.0 mi NNE 5.8 mph - N/A   Clear
4:55 AM 55.4 °F 32.0 °F 41% 29.83 in 10.0 mi NE 5.8 mph - N/A   Clear
5:15 AM 55.4 °F 32.0 °F 41% 29.83 in 10.0 mi NE 6.9 mph - N/A   Clear
5:35 AM 59.0 °F 30.2 °F 34% 29.83 in 10.0 mi East 5.8 mph - N/A   Clear
5:55 AM 57.2 °F 32.0 °F 38% 29.83 in 10.0 mi ENE 6.9 mph - N/A   Clear
6:15 AM 60.8 °F 28.4 °F 29% 29.83 in 10.0 mi ENE 8.1 mph - N/A   Clear
6:35 AM 60.8 °F 32.0 °F 34% 29.83 in 10.0 mi ENE 9.2 mph - N/A   Clear
6:55 AM 60.8 °F 32.0 °F 34% 29.84 in 10.0 mi ENE 8.1 mph - N/A   Clear
7:15 AM 62.6 °F 30.2 °F 30% 29.85 in 10.0 mi East 5.8 mph - N/A   Clear
7:35 AM 64.4 °F 30.2 °F 28% 29.86 in 10.0 mi East 3.5 mph - N/A   Clear
7:55 AM 66.2 °F 30.2 °F 26% 29.86 in 10.0 mi Calm Calm - N/A   Clear
8:15 AM 68.0 °F 32.0 °F 26% 29.86 in 10.0 mi Calm Calm - N/A   Clear
8:35 AM 68.0 °F 32.0 °F 26% 29.87 in 10.0 mi Calm Calm - N/A   Clear
8:55 AM 71.6 °F 28.4 °F 20% 29.86 in 10.0 mi SW 5.8 mph - N/A   Clear
9:15 AM 73.4 °F 28.4 °F 19% 29.86 in 10.0 mi SW 10.4 mph - N/A   Clear
9:35 AM 73.4 °F 26.6 °F 18% 29.85 in 10.0 mi SW 9.2 mph - N/A   Clear
9:55 AM 73.4 °F 26.6 °F 18% 29.85 in 10.0 mi South 11.5 mph - N/A   Clear
10:15 AM 75.2 °F 24.8 °F 15% 29.84 in 10.0 mi SSW 17.3 mph 24.2 mph N/A   Clear
10:35 AM 75.2 °F 24.8 °F 15% 29.84 in 10.0 mi SSW 21.9 mph - N/A   Clear
10:55 AM 75.2 °F 24.8 °F 15% 29.83 in 10.0 mi SSW 21.9 mph - N/A   Clear
11:15 AM 75.2 °F 24.8 °F 15% 29.82 in 10.0 mi SSW 17.3 mph 31.1 mph N/A   Clear
11:35 AM 75.2 °F 28.4 °F 18% 29.81 in 10.0 mi SSW 19.6 mph 25.3 mph N/A   Clear
11:55 AM 75.2 °F 26.6 °F 17% 29.80 in 10.0 mi South 11.5 mph 17.3 mph N/A   Clear
12:15 PM 77.0 °F 26.6 °F 16% 29.79 in 10.0 mi SSW 15.0 mph - N/A   Partly Cloudy
12:35 PM 77.0 °F 32.0 °F 19% 29.78 in 10.0 mi SW 18.4 mph 23.0 mph N/A   Partly Cloudy
12:55 PM 77.0 °F 32.0 °F 19% 29.77 in 10.0 mi SW 19.6 mph 26.5 mph N/A   Mostly Cloudy
1:15 PM 75.2 °F 28.4 °F 18% 29.77 in 10.0 mi South 13.8 mph - N/A   Scattered Clouds
1:35 PM 73.4 °F 28.4 °F 19% 29.76 in 10.0 mi South 16.1 mph 20.7 mph N/A   Scattered Clouds
1:55 PM 73.4 °F 30.2 °F 20% 29.76 in 10.0 mi South 19.6 mph 25.3 mph N/A   Scattered Clouds
2:15 PM 73.4 °F 32.0 °F 22% 29.75 in 10.0 mi SSE 16.1 mph 25.3 mph N/A   Mostly Cloudy
2:35 PM 73.4 °F 32.0 °F 22% 29.75 in 10.0 mi South 19.6 mph - N/A   Overcast
2:55 PM 71.6 °F 32.0 °F 23% 29.75 in 10.0 mi SSE 17.3 mph - N/A   Mostly Cloudy
3:15 PM 71.6 °F 32.0 °F 23% 29.74 in 10.0 mi SSE 13.8 mph - N/A   Partly Cloudy
3:35 PM 71.6 °F 32.0 °F 23% 29.72 in 10.0 mi SSE 18.4 mph - N/A   Clear
3:55 PM 71.6 °F 32.0 °F 23% 29.72 in 10.0 mi SSE 16.1 mph 21.9 mph N/A   Clear
4:15 PM 71.6 °F 32.0 °F 23% 29.71 in 10.0 mi SSE 19.6 mph 23.0 mph N/A   Mostly Cloudy
4:35 PM 71.6 °F 30.2 °F 22% 29.71 in 10.0 mi SSE 18.4 mph 24.2 mph N/A   Mostly Cloudy
4:55 PM 69.8 °F 28.4 °F 21% 29.70 in 10.0 mi SSE 21.9 mph 26.5 mph N/A   Mostly Cloudy
5:15 PM 69.8 °F 30.2 °F 23% 29.71 in 10.0 mi SSE 20.7 mph 24.2 mph N/A   Mostly Cloudy
5:35 PM 69.8 °F 28.4 °F 21% 29.71 in 10.0 mi South 15.0 mph 24.2 mph N/A   Mostly Cloudy
5:55 PM 69.8 °F 30.2 °F 23% 29.70 in 10.0 mi South 17.3 mph 23.0 mph N/A   Mostly Cloudy
6:15 PM 69.8 °F 32.0 °F 25% 29.71 in 10.0 mi South 17.3 mph 26.5 mph N/A   Mostly Cloudy
6:35 PM 69.8 °F 32.0 °F 25% 29.71 in 10.0 mi South 12.7 mph - N/A   Mostly Cloudy
6:55 PM 71.6 °F 32.0 °F 23% 29.71 in 10.0 mi South 19.6 mph 24.2 mph N/A   Mostly Cloudy
7:15 PM 71.6 °F 32.0 °F 23% 29.72 in 10.0 mi South 17.3 mph 26.5 mph N/A   Overcast
7:35 PM 69.8 °F 37.4 °F 31% 29.72 in 10.0 mi South 15.0 mph 27.6 mph N/A   Overcast
7:55 PM 68.0 °F 37.4 °F 33% 29.73 in 10.0 mi SSW 12.7 mph - N/A   Overcast
8:15 PM 68.0 °F 37.4 °F 33% 29.72 in 10.0 mi South 11.5 mph - N/A   Overcast
8:35 PM 68.0 °F 37.4 °F 33% 29.73 in 10.0 mi South 13.8 mph - N/A   Overcast
8:55 PM 68.0 °F 39.2 °F 35% 29.73 in 10.0 mi South 13.8 mph 19.6 mph N/A   Overcast
9:15 PM 68.0 °F 42.8 °F 40% 29.73 in 10.0 mi South 13.8 mph 20.7 mph N/A   Overcast
9:35 PM 66.2 °F 44.6 °F 46% 29.73 in 10.0 mi South 16.1 mph 21.9 mph N/A   Overcast
9:55 PM 66.2 °F 46.4 °F 49% 29.73 in 10.0 mi South 15.0 mph - N/A   Overcast
10:15 PM 66.2 °F 46.4 °F 49% 29.72 in 10.0 mi SSW 15.0 mph 21.9 mph N/A   Overcast
10:35 PM 66.2 °F 46.4 °F 49% 29.72 in 10.0 mi South 11.5 mph - N/A   Overcast
10:55 PM 66.2 °F 46.4 °F 49% 29.71 in 10.0 mi South 10.4 mph - N/A   Overcast
11:15 PM 66.2 °F 46.4 °F 49% 29.71 in 10.0 mi South 11.5 mph 23.0 mph N/A   Overcast
11:35 PM 66.2 °F 44.6 °F 46% 29.71 in 10.0 mi South 12.7 mph 21.9 mph N/A   Overcast
11:55 PM 66.2 °F 44.6 °F 46% 29.70 in 10.0 mi South 12.7 mph 23.0 mph N/A   Overcast